createdAt,value
2022-12-11T00:02:09.226Z,96049.69
2022-12-11T00:04:35.889Z,96045.41
2022-12-11T00:07:02.523Z,96054.13
2022-12-11T00:09:29.152Z,96053.97
2022-12-11T00:11:55.969Z,96057.44
2022-12-11T00:14:22.598Z,96056.53
2022-12-11T00:16:49.305Z,96044.56
2022-12-11T00:19:16.226Z,96052.63
2022-12-11T00:21:42.876Z,96053.16
2022-12-11T00:24:09.580Z,96046.38
2022-12-11T00:26:36.201Z,96061.41
2022-12-11T00:29:02.889Z,96054.28
2022-12-11T00:31:29.592Z,96055.44
2022-12-11T00:33:56.263Z,96057.53
2022-12-11T00:36:25.093Z,96049.06
2022-12-11T00:38:51.828Z,96053.25
2022-12-11T00:41:18.482Z,96066.44
2022-12-11T00:43:45.167Z,96049.50
2022-12-11T00:46:11.878Z,96063.34
2022-12-11T00:48:38.546Z,96066.81
2022-12-11T00:51:05.411Z,96053.78
2022-12-11T00:53:32.056Z,96063.91
2022-12-11T00:55:58.700Z,96066.13
2022-12-11T00:58:25.359Z,96065.00
2022-12-11T01:00:52.010Z,96064.03
2022-12-11T01:03:18.622Z,96057.78
2022-12-11T01:05:52.590Z,96061.00
2022-12-11T01:08:19.270Z,96070.16
2022-12-11T01:10:45.944Z,96061.16
2022-12-11T01:13:12.610Z,96070.72
2022-12-11T01:15:42.024Z,96067.50
2022-12-11T01:18:09.755Z,96063.66
2022-12-11T01:20:37.890Z,96067.13
2022-12-11T01:23:04.786Z,96069.63
2022-12-11T01:25:31.423Z,96072.94
2022-12-11T01:27:58.059Z,96078.06
2022-12-11T01:30:25.273Z,96076.84
2022-12-11T01:32:52.116Z,96079.31
2022-12-11T01:35:18.965Z,96084.75
2022-12-11T01:37:45.601Z,96096.50
2022-12-11T01:40:14.042Z,96102.50
2022-12-11T01:42:40.683Z,96107.47
2022-12-11T01:45:24.702Z,96104.56
2022-12-11T01:48:18.109Z,96098.31
2022-12-11T01:50:50.575Z,96092.78
2022-12-11T01:53:23.469Z,96091.94
2022-12-11T01:55:50.648Z,96097.75
2022-12-11T01:58:17.294Z,96095.66
2022-12-11T02:00:43.963Z,96097.75
2022-12-11T02:03:10.606Z,96092.78
2022-12-11T02:05:37.249Z,96087.75
2022-12-11T02:08:03.976Z,96092.63
2022-12-11T02:10:57.188Z,96089.84
2022-12-11T02:13:30.253Z,96086.81
2022-12-11T02:16:06.027Z,96083.91
2022-12-11T02:18:39.483Z,96080.00
2022-12-11T02:21:08.891Z,96088.88
2022-12-11T02:24:12.779Z,96084.59
2022-12-11T02:27:14.773Z,96092.78
2022-12-11T02:29:49.703Z,96092.19
2022-12-11T02:32:25.242Z,96090.81
2022-12-11T02:34:57.613Z,96101.50
2022-12-11T02:37:25.202Z,96092.09
2022-12-11T02:39:52.542Z,96092.63
2022-12-11T02:42:19.191Z,96087.78
2022-12-11T02:44:45.836Z,96089.28
2022-12-11T02:47:12.942Z,96090.97
2022-12-11T02:49:40.540Z,96088.47
2022-12-11T02:52:07.176Z,96098.41
2022-12-11T02:54:36.146Z,96098.16
2022-12-11T02:57:08.873Z,96088.31
2022-12-11T02:59:42.800Z,96092.09
2022-12-11T03:02:09.489Z,96091.25
2022-12-11T03:04:36.130Z,96091.50
2022-12-11T03:07:07.252Z,96100.53
2022-12-11T03:09:33.912Z,96109.53
2022-12-11T03:12:00.555Z,96119.94
2022-12-11T03:14:27.182Z,96107.88
2022-12-11T03:17:04.058Z,96118.00
2022-12-11T03:19:35.638Z,96111.78
2022-12-11T03:22:24.663Z,96109.69
2022-12-11T03:24:51.882Z,96107.63
2022-12-11T03:27:27.546Z,96107.63
2022-12-11T03:29:59.005Z,96091.25
2022-12-11T03:32:28.287Z,96095.66
2022-12-11T03:35:18.025Z,96093.19
2022-12-11T03:37:44.648Z,96087.09
2022-12-11T03:40:14.397Z,96083.22
2022-12-11T03:42:41.036Z,96085.72
2022-12-11T03:45:08.058Z,96081.28
2022-12-11T03:47:34.885Z,96090.16
2022-12-11T03:50:01.573Z,96095.00
2022-12-11T03:52:28.203Z,96089.88
2022-12-11T03:54:55.319Z,96095.41
2022-12-11T03:57:22.782Z,96097.78
2022-12-11T03:59:49.561Z,96098.31
2022-12-11T04:02:16.212Z,96097.91
2022-12-11T04:04:43.009Z,96097.47
2022-12-11T04:07:09.672Z,96093.47
2022-12-11T04:09:36.324Z,96104.84
2022-12-11T04:12:03.003Z,96104.84
2022-12-11T04:14:29.667Z,96091.97
2022-12-11T04:16:56.610Z,96101.09
2022-12-11T04:19:23.297Z,96105.13
2022-12-11T04:21:49.918Z,96108.16
2022-12-11T04:24:16.556Z,96108.75
2022-12-11T04:26:46.470Z,96107.34
2022-12-11T04:29:13.818Z,96111.78
2022-12-11T04:31:40.477Z,96098.59
2022-12-11T04:34:07.131Z,96102.88
2022-12-11T04:36:33.783Z,96100.84
2022-12-11T04:39:00.436Z,96100.00
2022-12-11T04:41:27.083Z,96094.84
2022-12-11T04:43:53.733Z,96095.69
2022-12-11T04:46:21.373Z,96086.41
2022-12-11T04:48:52.370Z,96092.34
2022-12-11T04:51:22.223Z,96089.47
2022-12-11T04:53:48.871Z,96087.66
2022-12-11T04:56:15.686Z,96084.19
2022-12-11T04:58:43.202Z,96081.53
2022-12-11T05:01:10.899Z,96080.81
2022-12-11T05:03:37.654Z,96087.66
2022-12-11T05:06:04.534Z,96080.72
2022-12-11T05:08:31.153Z,96078.78
2022-12-11T05:11:02.375Z,96075.31
2022-12-11T05:13:29.142Z,96075.44
2022-12-11T05:15:55.999Z,96073.78
2022-12-11T05:18:22.675Z,96070.44
2022-12-11T05:21:02.233Z,96071.00
2022-12-11T05:23:29.025Z,96071.41
2022-12-11T05:25:56.573Z,96069.03
2022-12-11T05:28:23.457Z,96063.78
2022-12-11T05:31:01.403Z,96068.75
2022-12-11T05:33:28.199Z,96067.38
2022-12-11T05:35:54.825Z,96065.13
2022-12-11T05:38:21.434Z,96074.72
2022-12-11T05:41:01.161Z,96072.75
2022-12-11T05:43:28.592Z,96076.47
2022-12-11T05:45:55.237Z,96080.31
2022-12-11T05:48:21.905Z,96075.19
2022-12-11T05:51:00.272Z,96075.06
2022-12-11T05:53:26.977Z,96072.69
2022-12-11T05:55:53.621Z,96071.56
2022-12-11T05:58:20.536Z,96070.59
2022-12-11T06:00:47.677Z,96076.09
2022-12-11T06:03:14.439Z,96084.03
2022-12-11T06:05:41.634Z,96081.84
2022-12-11T06:08:08.382Z,96073.22
2022-12-11T06:10:35.034Z,96078.97
2022-12-11T06:13:01.670Z,96072.19
2022-12-11T06:15:29.007Z,96074.66
2022-12-11T06:17:55.639Z,96067.44
2022-12-11T06:20:22.252Z,96071.94
2022-12-11T06:22:48.897Z,96062.25
2022-12-11T06:25:15.567Z,96065.94
2022-12-11T06:27:42.191Z,96073.13
2022-12-11T06:30:09.326Z,96072.13
2022-12-11T06:32:35.958Z,96082.94
2022-12-11T06:35:02.598Z,96080.19
2022-12-11T06:37:29.226Z,96081.53
2022-12-11T06:39:55.856Z,96079.59
2022-12-11T06:42:22.509Z,96091.34
2022-12-11T06:44:49.128Z,96091.59
2022-12-11T06:47:15.829Z,96087.81
2022-12-11T06:49:42.482Z,96092.13
2022-12-11T06:52:12.459Z,96094.59
2022-12-11T06:54:41.686Z,96094.69
2022-12-11T06:57:09.615Z,96102.44
2022-12-11T06:59:36.389Z,96098.72
2022-12-11T07:02:03.094Z,96095.56
2022-12-11T07:04:29.760Z,96092.03
2022-12-11T07:06:57.025Z,96094.88
2022-12-11T07:09:24.295Z,96102.06
2022-12-11T07:11:51.538Z,96100.81
2022-12-11T07:14:18.156Z,96107.94
2022-12-11T07:16:44.811Z,96103.97
2022-12-11T07:19:11.469Z,96109.34
2022-12-11T07:21:38.114Z,96113.81
2022-12-11T07:24:05.033Z,96114.06
2022-12-11T07:26:31.650Z,96113.38
2022-12-11T07:28:58.320Z,96115.59
2022-12-11T07:31:25.806Z,96107.97
2022-12-11T07:33:59.656Z,96101.50
2022-12-11T07:36:26.433Z,96098.56
2022-12-11T07:38:53.158Z,96109.78
2022-12-11T07:41:19.846Z,96111.03
2022-12-11T07:43:46.469Z,96108.31
2022-12-11T07:46:15.267Z,96112.13
2022-12-11T07:48:42.699Z,96109.25
2022-12-11T07:51:16.943Z,96113.31
2022-12-11T07:53:44.306Z,96111.66
2022-12-11T07:56:11.108Z,96119.19
2022-12-11T07:58:37.739Z,96114.28
2022-12-11T08:01:25.162Z,96124.09
2022-12-11T08:03:52.117Z,96111.31
2022-12-11T08:06:18.746Z,96103.38
2022-12-11T08:08:45.381Z,96105.84
2022-12-11T08:11:12.940Z,96102.97
2022-12-11T08:13:39.633Z,96093.84
2022-12-11T08:16:07.031Z,96098.59
2022-12-11T08:18:34.225Z,96097.34
2022-12-11T08:21:05.820Z,96101.91
2022-12-11T08:23:32.529Z,96113.16
2022-12-11T08:25:59.183Z,96109.00
2022-12-11T08:28:27.291Z,96111.22
2022-12-11T08:30:54.080Z,96107.72
2022-12-11T08:33:20.758Z,96103.78
2022-12-11T08:35:47.441Z,96106.34
2022-12-11T08:38:14.350Z,96102.09
2022-12-11T08:40:41.047Z,96098.47
2022-12-11T08:43:07.664Z,96098.19
2022-12-11T08:45:34.295Z,96092.66
2022-12-11T08:48:00.961Z,96099.94
2022-12-11T08:50:27.619Z,96095.28
2022-12-11T08:52:54.321Z,96093.25
2022-12-11T08:55:20.989Z,96086.91
2022-12-11T08:57:47.656Z,96077.22
2022-12-11T09:00:14.740Z,96075.97
2022-12-11T09:02:41.860Z,96073.13
2022-12-11T09:05:08.915Z,96067.88
2022-12-11T09:07:36.356Z,96055.91
2022-12-11T09:10:06.600Z,96059.69
2022-12-11T09:12:34.253Z,96054.22
2022-12-11T09:15:00.890Z,96061.97
2022-12-11T09:17:27.587Z,96054.00
2022-12-11T09:19:54.273Z,96053.31
2022-12-11T09:22:20.894Z,96051.94
2022-12-11T09:24:47.561Z,96058.34
2022-12-11T09:27:14.173Z,96051.25
2022-12-11T09:29:40.843Z,96056.19
2022-12-11T09:32:07.475Z,96056.84
2022-12-11T09:34:34.115Z,96053.44
2022-12-11T09:37:00.767Z,96048.22
2022-12-11T09:39:27.391Z,96050.84
2022-12-11T09:42:08.699Z,96038.78
2022-12-11T09:44:41.520Z,96043.41
2022-12-11T09:47:23.279Z,96043.69
2022-12-11T09:49:51.457Z,96045.25
2022-12-11T09:52:27.590Z,96054.81
2022-12-11T09:54:58.987Z,96051.75
2022-12-11T09:57:34.196Z,96050.69
2022-12-11T10:00:20.294Z,96054.63
2022-12-11T10:03:18.511Z,96053.81
2022-12-11T10:06:05.105Z,96051.47
2022-12-11T10:08:56.234Z,96064.13
2022-12-11T10:11:44.003Z,96061.50
2022-12-11T10:14:17.339Z,96054.41
2022-12-11T10:16:49.072Z,96058.69
2022-12-11T10:19:26.288Z,96061.16
2022-12-11T10:21:52.952Z,96053.53
2022-12-11T10:24:57.871Z,96053.34
2022-12-11T10:27:19.783Z,96047.56
2022-12-11T10:30:00.909Z,96047.38
2022-12-11T10:33:03.083Z,96046.19
2022-12-11T10:35:31.518Z,96046.53
2022-12-11T10:38:16.524Z,96037.59
2022-12-11T10:40:45.930Z,96033.59
2022-12-11T10:43:12.594Z,96033.22
2022-12-11T10:45:39.237Z,96032.56
2022-12-11T10:48:11.832Z,96027.09
2022-12-11T10:50:38.473Z,96031.19
2022-12-11T10:53:05.358Z,96041.34
2022-12-11T10:55:39.287Z,96027.53
2022-12-11T10:58:05.915Z,96037.88
2022-12-11T11:00:36.963Z,96032.53
2022-12-11T11:03:36.526Z,96030.28
2022-12-11T11:06:16.929Z,96025.16
2022-12-11T11:08:45.598Z,96025.13
2022-12-11T11:11:26.859Z,96017.34
2022-12-11T11:14:09.962Z,96023.78
2022-12-11T11:16:37.470Z,96020.69
2022-12-11T11:19:04.107Z,96027.06
2022-12-11T11:21:30.874Z,96023.44
2022-12-11T11:23:57.570Z,96013.47
2022-12-11T11:26:30.793Z,96017.47
2022-12-11T11:29:23.037Z,96009.88
2022-12-11T11:31:49.728Z,96016.16
2022-12-11T11:34:19.492Z,96014.97
2022-12-11T11:36:46.119Z,96012.47
2022-12-11T11:39:31.902Z,96013.31
2022-12-11T11:42:13.687Z,96012.97
2022-12-11T11:44:43.447Z,96016.53
2022-12-11T11:47:48.789Z,96011.59
2022-12-11T11:50:18.178Z,96000.81
2022-12-11T11:52:56.011Z,96003.25
2022-12-11T11:55:31.909Z,95997.53
2022-12-11T11:58:23.512Z,96011.28
2022-12-11T12:00:50.431Z,96004.50
2022-12-11T12:03:19.395Z,96000.19
2022-12-11T12:05:49.998Z,96001.19
2022-12-11T12:08:25.621Z,96000.84
2022-12-11T12:11:01.733Z,95994.84
2022-12-11T12:13:55.617Z,95986.25
2022-12-11T12:19:48.149Z,95981.47
2022-12-11T12:22:40.214Z,95981.88
2022-12-11T12:25:31.933Z,95983.84
2022-12-11T12:28:35.693Z,95978.97
2022-12-11T12:31:14.479Z,95985.03
2022-12-11T12:33:48.317Z,95990.84
2022-12-11T12:36:36.742Z,95983.13
2022-12-11T12:39:43.969Z,95985.25
2022-12-11T12:42:36.746Z,95980.28
2022-12-11T12:45:12.902Z,95993.13
2022-12-11T12:47:39.707Z,95983.09
2022-12-11T12:50:12.209Z,95989.53
2022-12-11T12:52:39.262Z,95987.50
2022-12-11T12:55:26.775Z,95984.41
2022-12-11T12:57:55.738Z,95987.72
2022-12-11T13:00:39.194Z,95989.91
2022-12-11T13:03:20.504Z,95994.16
2022-12-11T13:06:01.115Z,95986.44
2022-12-11T13:08:31.600Z,95987.56
2022-12-11T13:11:06.313Z,95988.94
2022-12-11T13:13:35.898Z,95983.81
2022-12-11T13:16:17.534Z,95978.34
2022-12-11T13:18:45.505Z,95983.63
2022-12-11T13:21:36.090Z,95976.19
2022-12-11T13:24:21.743Z,95977.47
2022-12-11T13:26:49.331Z,95974.69
2022-12-11T13:29:32.661Z,95966.97
2022-12-11T13:32:01.662Z,95965.25
2022-12-11T13:34:32.209Z,95962.84
2022-12-11T13:36:59.803Z,95971.75
2022-12-11T13:39:28.420Z,95965.69
2022-12-11T13:41:57.769Z,95964.69
2022-12-11T13:44:28.540Z,95973.50
2022-12-11T13:46:58.878Z,95976.75
2022-12-11T13:49:38.903Z,95970.53
2022-12-11T13:52:06.482Z,95972.97
2022-12-11T13:54:36.815Z,95971.78
2022-12-11T13:57:07.988Z,95971.47
2022-12-11T13:59:38.533Z,95972.59
2022-12-11T14:02:14.942Z,95967.84
2022-12-11T14:04:43.499Z,95968.84
2022-12-11T14:07:10.187Z,95969.66
2022-12-11T14:09:39.815Z,95965.41
2022-12-11T14:12:06.678Z,95970.78
2022-12-11T14:14:40.653Z,95964.78
2022-12-11T14:17:12.446Z,95958.22
2022-12-11T14:19:39.196Z,95959.13
2022-12-11T14:22:05.930Z,95961.47
2022-12-11T14:24:32.611Z,95961.59
2022-12-11T14:26:59.904Z,95963.56
2022-12-11T14:29:33.557Z,95968.03
2022-12-11T14:32:05.061Z,95968.50
2022-12-11T14:34:36.926Z,95965.16
2022-12-11T14:37:06.330Z,95961.16
2022-12-11T14:39:41.954Z,95965.06
2022-12-11T14:42:18.762Z,95961.88
2022-12-11T14:44:49.443Z,95961.63
2022-12-11T14:47:21.503Z,95960.47
2022-12-11T14:50:08.248Z,95967.66
2022-12-11T14:52:50.683Z,95958.84
2022-12-11T14:55:22.871Z,95964.91
2022-12-11T14:57:50.661Z,95960.09
2022-12-11T15:00:31.126Z,95958.88
2022-12-11T15:03:18.972Z,95951.97
2022-12-11T15:05:56.123Z,95952.81
2022-12-11T15:08:27.343Z,95954.09
2022-12-11T15:11:13.419Z,95960.47
2022-12-11T15:13:57.953Z,95951.06
2022-12-11T15:16:25.282Z,95963.13
2022-12-11T15:18:53.522Z,95956.47
2022-12-11T15:21:20.165Z,95963.28
2022-12-11T15:23:51.160Z,95974.78
2022-12-11T15:26:17.948Z,95972.59
2022-12-11T15:28:44.712Z,95971.75
2022-12-11T15:31:30.433Z,95977.56
2022-12-11T15:33:57.121Z,95980.19
2022-12-11T15:36:26.258Z,95982.44
2022-12-11T15:38:52.907Z,95971.22
2022-12-11T15:41:19.796Z,95983.66
2022-12-11T15:43:46.482Z,95984.75
2022-12-11T15:46:13.229Z,95985.84
2022-12-11T15:48:39.874Z,95988.34
2022-12-11T15:51:06.543Z,95992.63
2022-12-11T15:53:33.206Z,95995.13
2022-12-11T15:55:59.859Z,95988.28
2022-12-11T15:58:26.546Z,95988.03
2022-12-11T16:00:53.621Z,95998.25
2022-12-11T16:03:21.285Z,96001.53
2022-12-11T16:05:49.112Z,95998.94
2022-12-11T16:08:18.303Z,96001.41
2022-12-11T16:10:45.086Z,96001.16
2022-12-11T16:13:11.917Z,96009.41
2022-12-11T16:15:39.381Z,96005.59
2022-12-11T16:18:07.547Z,96005.72
2022-12-11T16:20:35.011Z,96020.66
2022-12-11T16:23:01.715Z,96015.47
2022-12-11T16:25:28.435Z,96013.78
2022-12-11T16:27:58.612Z,96014.06
2022-12-11T16:30:26.079Z,96020.00
2022-12-11T16:32:52.777Z,96020.84
2022-12-11T16:35:19.746Z,96013.38
2022-12-11T16:37:49.149Z,96017.66
2022-12-11T16:40:15.887Z,96007.22
2022-12-11T16:42:42.538Z,96011.78
2022-12-11T16:45:12.806Z,96011.94
2022-12-11T16:47:39.594Z,96003.78
2022-12-11T16:50:06.750Z,96006.13
2022-12-11T16:52:33.450Z,96005.56
2022-12-11T16:55:00.098Z,95994.28
2022-12-11T16:57:26.759Z,95998.28
2022-12-11T16:59:53.586Z,95998.28
2022-12-11T17:02:20.449Z,95999.13
2022-12-11T17:04:53.523Z,95998.44
2022-12-11T17:07:20.603Z,96000.66
2022-12-11T17:09:48.282Z,95997.78
2022-12-11T17:12:15.007Z,95999.13
2022-12-11T17:14:41.718Z,96002.44
2022-12-11T17:17:08.381Z,96008.66
2022-12-11T17:19:35.484Z,96009.50
2022-12-11T17:22:02.174Z,96015.72
2022-12-11T17:24:29.213Z,96011.06
2022-12-11T17:26:55.899Z,96011.06
2022-12-11T17:29:22.614Z,96010.38
2022-12-11T17:31:49.280Z,96015.63
2022-12-11T17:34:15.919Z,96016.50
2022-12-11T17:36:42.543Z,96012.63
2022-12-11T17:39:09.187Z,96014.41
2022-12-11T17:41:35.851Z,96018.84
2022-12-11T17:44:02.519Z,96014.25
2022-12-11T17:46:29.253Z,96019.50
2022-12-11T17:48:56.305Z,96015.34
2022-12-11T17:51:23.997Z,96013.72
2022-12-11T17:53:51.636Z,96013.59
2022-12-11T17:56:19.139Z,96022.53
2022-12-11T17:58:45.866Z,96020.88
2022-12-11T18:01:12.628Z,96014.38
2022-12-11T18:03:42.051Z,96018.25
2022-12-11T18:06:10.965Z,96020.19
2022-12-11T18:08:37.735Z,96017.00
2022-12-11T18:11:11.531Z,96019.09
2022-12-11T18:13:38.367Z,96030.44
2022-12-11T18:16:07.011Z,96021.16
2022-12-11T18:18:36.529Z,96026.00
2022-12-11T18:21:03.183Z,96023.78
2022-12-11T18:23:29.838Z,96021.69
2022-12-11T18:25:56.650Z,96022.69
2022-12-11T18:28:23.319Z,96016.47
2022-12-11T18:30:50.014Z,96028.78
2022-12-11T18:33:16.664Z,96025.06
2022-12-11T18:35:43.919Z,96029.69
2022-12-11T18:38:10.606Z,96026.91
2022-12-11T18:40:37.999Z,96033.44
2022-12-11T18:43:04.879Z,96033.69
2022-12-11T18:45:31.618Z,96041.69
2022-12-11T18:47:58.262Z,96046.38
2022-12-11T18:50:25.243Z,96042.50
2022-12-11T18:52:55.376Z,96034.66
2022-12-11T18:55:22.023Z,96048.47
2022-12-11T18:57:48.671Z,96032.28
2022-12-11T19:00:15.837Z,96043.91
2022-12-11T19:02:42.541Z,96047.09
2022-12-11T19:05:09.540Z,96032.88
2022-12-11T19:07:36.471Z,96036.34
2022-12-11T19:10:03.491Z,96043.63
2022-12-11T19:12:30.178Z,96053.97
2022-12-11T19:14:56.856Z,96049.72
2022-12-11T19:17:23.515Z,96047.75
2022-12-11T19:19:50.425Z,96049.97
2022-12-11T19:22:17.536Z,96047.75
2022-12-11T19:24:44.443Z,96048.84
2022-12-11T19:27:13.719Z,96057.81
2022-12-11T19:29:40.576Z,96048.28
2022-12-11T19:32:07.245Z,96044.47
2022-12-11T19:34:34.092Z,96041.63
2022-12-11T19:37:00.757Z,96053.72
2022-12-11T19:39:27.412Z,96047.25
2022-12-11T19:41:54.266Z,96052.44
2022-12-11T19:44:20.988Z,96054.56
2022-12-11T19:46:47.760Z,96051.03
2022-12-11T19:49:14.445Z,96053.78
2022-12-11T19:51:41.692Z,96045.06
2022-12-11T19:54:09.754Z,96045.50
2022-12-11T19:56:36.417Z,96047.84
2022-12-11T19:59:04.086Z,96034.84
2022-12-11T20:01:31.690Z,96044.63
2022-12-11T20:03:59.459Z,96052.06
2022-12-11T20:06:27.807Z,96054.09
2022-12-11T20:08:54.547Z,96048.97
2022-12-11T20:11:21.268Z,96047.78
2022-12-11T20:13:48.050Z,96051.47
2022-12-11T20:16:14.927Z,96054.22
2022-12-11T20:18:41.617Z,96046.88
2022-12-11T20:21:11.297Z,96052.69
2022-12-11T20:23:38.006Z,96058.72
2022-12-11T20:26:08.537Z,96064.09
2022-12-11T20:28:35.237Z,96059.94
2022-12-11T20:31:13.571Z,96068.41
2022-12-11T20:33:43.349Z,96067.69
2022-12-11T20:36:14.285Z,96066.91
2022-12-11T20:38:40.970Z,96068.78
2022-12-11T20:41:12.747Z,96068.13
2022-12-11T20:43:39.620Z,96065.88
2022-12-11T20:46:07.276Z,96053.72
2022-12-11T20:48:34.028Z,96058.72
2022-12-11T20:51:01.473Z,96062.91
2022-12-11T20:53:28.161Z,96043.97
2022-12-11T20:55:54.882Z,96050.53
2022-12-11T20:58:21.528Z,96034.44
2022-12-11T21:00:48.357Z,96049.00
2022-12-11T21:03:15.013Z,96043.53
2022-12-11T21:05:41.776Z,96051.19
2022-12-11T21:08:08.914Z,96042.63
2022-12-11T21:10:35.614Z,96045.41
2022-12-11T21:13:02.458Z,96045.06
2022-12-11T21:15:29.103Z,96041.53
2022-12-11T21:17:55.787Z,96041.97
2022-12-11T21:20:22.430Z,96048.19
2022-12-11T21:22:49.063Z,96046.16
2022-12-11T21:25:15.806Z,96038.84
2022-12-11T21:27:42.471Z,96040.81
2022-12-11T21:30:09.385Z,96040.91
2022-12-11T21:32:36.014Z,96039.78
2022-12-11T21:35:02.739Z,96038.13
2022-12-11T21:37:29.413Z,96031.31
2022-12-11T21:39:56.546Z,96045.72
2022-12-11T21:42:23.897Z,96040.25
2022-12-11T21:45:37.562Z,96040.31
2022-12-11T21:47:37.244Z,96051.63
2022-12-11T21:50:04.451Z,96047.34
2022-12-11T21:52:31.184Z,96049.13
2022-12-11T21:54:57.811Z,96040.69
2022-12-11T21:57:26.600Z,96053.69
2022-12-11T21:59:53.515Z,96049.59
2022-12-11T22:02:20.219Z,96061.41
2022-12-11T22:04:46.879Z,96058.09
2022-12-11T22:07:13.626Z,96062.72
2022-12-11T22:09:40.273Z,96063.81
2022-12-11T22:12:07.005Z,96067.13
2022-12-11T22:14:33.621Z,96055.72
2022-12-11T22:17:00.297Z,96062.53
2022-12-11T22:19:32.328Z,96057.16
2022-12-11T22:21:59.417Z,96061.78
2022-12-11T22:24:26.075Z,96059.41
2022-12-11T22:26:52.735Z,96062.03
2022-12-11T22:29:19.371Z,96056.06
2022-12-11T22:31:46.040Z,96065.72
2022-12-11T22:34:12.670Z,96058.00
2022-12-11T22:36:39.314Z,96061.22
2022-12-11T22:39:05.999Z,96069.91
2022-12-11T22:41:32.921Z,96063.13
2022-12-11T22:43:59.572Z,96061.59
2022-12-11T22:46:28.245Z,96062.44
2022-12-11T22:48:54.935Z,96060.63
2022-12-11T22:51:21.634Z,96058.00
2022-12-11T22:53:48.273Z,96059.16
2022-12-11T22:56:14.923Z,96060.38
2022-12-11T22:58:41.561Z,96056.81
2022-12-11T23:01:12.958Z,96061.34
2022-12-11T23:03:39.689Z,96065.06
2022-12-11T23:06:09.049Z,96071.72
2022-12-11T23:08:36.801Z,96060.88
2022-12-11T23:11:10.367Z,96059.78
2022-12-11T23:13:37.003Z,96064.78
2022-12-11T23:16:03.642Z,96060.13
2022-12-11T23:18:30.294Z,96055.63
2022-12-11T23:20:56.947Z,96068.72
2022-12-11T23:23:23.610Z,96066.34
2022-12-11T23:25:50.323Z,96065.16
2022-12-11T23:28:16.945Z,96073.72
2022-12-11T23:30:43.628Z,96074.91
2022-12-11T23:33:10.276Z,96075.78
2022-12-11T23:35:36.921Z,96074.81
2022-12-11T23:38:03.597Z,96068.50
2022-12-11T23:40:30.225Z,96080.91
2022-12-11T23:42:56.846Z,96075.41
2022-12-11T23:45:23.546Z,96074.81
2022-12-11T23:47:50.158Z,96086.59
2022-12-11T23:50:16.785Z,96080.75
2022-12-11T23:52:43.428Z,96082.44
2022-12-11T23:55:10.759Z,96071.69
2022-12-11T23:57:37.624Z,96077.88
